sensor_id;sensor_type;location;lat;lon;timestamp;temperature;humidity
38854;DHT22;24606;51.992;4.198;2023-07-13T00:02:14;27.10;58.70
38854;DHT22;24606;51.992;4.198;2023-07-13T00:07:18;25.90;61.20
38854;DHT22;24606;51.992;4.198;2023-07-13T00:12:26;25.80;62.60
38854;DHT22;24606;51.992;4.198;2023-07-13T00:17:29;24.80;66.70
38854;DHT22;24606;51.992;4.198;2023-07-13T00:22:32;26.00;61.90
38854;DHT22;24606;51.992;4.198;2023-07-13T00:27:34;26.80;59.10
38854;DHT22;24606;51.992;4.198;2023-07-13T00:32:37;26.70;59.00
38854;DHT22;24606;51.992;4.198;2023-07-13T00:37:41;26.80;59.10
38854;DHT22;24606;51.992;4.198;2023-07-13T00:42:43;27.20;57.90
38854;DHT22;24606;51.992;4.198;2023-07-13T00:47:45;27.00;57.80
38854;DHT22;24606;51.992;4.198;2023-07-13T00:52:55;26.10;59.20
38854;DHT22;24606;51.992;4.198;2023-07-13T00:57:58;25.70;59.50
38854;DHT22;24606;51.992;4.198;2023-07-13T01:03:01;25.30;60.20
38854;DHT22;24606;51.992;4.198;2023-07-13T01:08:06;26.10;60.50
38854;DHT22;24606;51.992;4.198;2023-07-13T01:13:10;25.90;61.00
38854;DHT22;24606;51.992;4.198;2023-07-13T01:18:15;26.80;57.90
38854;DHT22;24606;51.992;4.198;2023-07-13T01:23:19;25.60;60.30
38854;DHT22;24606;51.992;4.198;2023-07-13T01:28:21;25.60;61.10
38854;DHT22;24606;51.992;4.198;2023-07-13T01:33:24;25.20;61.60
38854;DHT22;24606;51.992;4.198;2023-07-13T01:38:28;25.30;61.10
38854;DHT22;24606;51.992;4.198;2023-07-13T01:43:30;25.80;60.10
38854;DHT22;24606;51.992;4.198;2023-07-13T01:48:33;25.60;61.20
38854;DHT22;24606;51.992;4.198;2023-07-13T01:53:36;24.90;61.50
38854;DHT22;24606;51.992;4.198;2023-07-13T01:58:38;25.10;62.00
38854;DHT22;24606;51.992;4.198;2023-07-13T02:03:40;24.80;64.10
38854;DHT22;24606;51.992;4.198;2023-07-13T02:08:43;25.20;62.10
38854;DHT22;24606;51.992;4.198;2023-07-13T02:13:45;25.60;61.40
38854;DHT22;24606;51.992;4.198;2023-07-13T02:18:47;25.60;61.10
38854;DHT22;24606;51.992;4.198;2023-07-13T02:23:54;26.00;59.90
38854;DHT22;24606;51.992;4.198;2023-07-13T02:28:56;26.60;57.90
38854;DHT22;24606;51.992;4.198;2023-07-13T02:33:58;25.70;60.40
38854;DHT22;24606;51.992;4.198;2023-07-13T02:39:03;25.20;63.60
38854;DHT22;24606;51.992;4.198;2023-07-13T02:44:05;26.00;60.80
38854;DHT22;24606;51.992;4.198;2023-07-13T02:49:08;25.80;60.40
38854;DHT22;24606;51.992;4.198;2023-07-13T02:54:11;25.50;61.60
38854;DHT22;24606;51.992;4.198;2023-07-13T03:15:30;25.40;62.00
38854;DHT22;24606;51.992;4.198;2023-07-13T03:20:33;26.00;60.30
38854;DHT22;24606;51.992;4.198;2023-07-13T03:25:35;25.70;60.50
38854;DHT22;24606;51.992;4.198;2023-07-13T03:30:39;26.60;58.40
38854;DHT22;24606;51.992;4.198;2023-07-13T03:35:41;26.20;58.40
38854;DHT22;24606;51.992;4.198;2023-07-13T03:40:43;26.20;59.30
38854;DHT22;24606;51.992;4.198;2023-07-13T03:45:47;26.70;58.20
38854;DHT22;24606;51.992;4.198;2023-07-13T03:50:49;26.70;57.90
38854;DHT22;24606;51.992;4.198;2023-07-13T03:55:51;26.40;58.40
38854;DHT22;24606;51.992;4.198;2023-07-13T04:00:55;23.60;68.90
38854;DHT22;24606;51.992;4.198;2023-07-13T04:05:57;24.50;65.70
38854;DHT22;24606;51.992;4.198;2023-07-13T04:11:00;24.50;66.20
38854;DHT22;24606;51.992;4.198;2023-07-13T04:16:04;24.70;63.20
38854;DHT22;24606;51.992;4.198;2023-07-13T04:21:06;23.80;68.20
38854;DHT22;24606;51.992;4.198;2023-07-13T04:26:09;24.90;64.00
38854;DHT22;24606;51.992;4.198;2023-07-13T04:31:12;24.10;67.30
38854;DHT22;24606;51.992;4.198;2023-07-13T04:36:14;23.50;69.00
38854;DHT22;24606;51.992;4.198;2023-07-13T04:41:16;23.50;71.80
38854;DHT22;24606;51.992;4.198;2023-07-13T04:46:19;24.30;68.10
38854;DHT22;24606;51.992;4.198;2023-07-13T04:51:21;24.40;64.80
38854;DHT22;24606;51.992;4.198;2023-07-13T04:56:23;23.10;74.70
38854;DHT22;24606;51.992;4.198;2023-07-13T05:01:27;24.70;65.30
38854;DHT22;24606;51.992;4.198;2023-07-13T05:06:29;25.20;62.60
38854;DHT22;24606;51.992;4.198;2023-07-13T05:11:31;24.60;66.30
38854;DHT22;24606;51.992;4.198;2023-07-13T05:16:34;25.10;62.00
38854;DHT22;24606;51.992;4.198;2023-07-13T05:21:36;24.80;65.70
38854;DHT22;24606;51.992;4.198;2023-07-13T05:26:38;25.20;63.90
38854;DHT22;24606;51.992;4.198;2023-07-13T05:31:42;23.80;69.40
38854;DHT22;24606;51.992;4.198;2023-07-13T05:36:44;24.90;66.00
38854;DHT22;24606;51.992;4.198;2023-07-13T05:41:45;22.90;76.60
38854;DHT22;24606;51.992;4.198;2023-07-13T05:46:49;25.00;64.80
38854;DHT22;24606;51.992;4.198;2023-07-13T05:51:51;24.10;68.70
38854;DHT22;24606;51.992;4.198;2023-07-13T05:56:53;23.90;69.40
38854;DHT22;24606;51.992;4.198;2023-07-13T06:01:56;24.80;64.50
38854;DHT22;24606;51.992;4.198;2023-07-13T06:06:58;25.00;62.40
38854;DHT22;24606;51.992;4.198;2023-07-13T06:12:00;24.30;66.30
38854;DHT22;24606;51.992;4.198;2023-07-13T06:17:04;25.00;64.60
38854;DHT22;24606;51.992;4.198;2023-07-13T06:22:06;25.60;62.50
38854;DHT22;24606;51.992;4.198;2023-07-13T06:27:08;24.60;67.10
38854;DHT22;24606;51.992;4.198;2023-07-13T06:32:12;25.80;61.70
38854;DHT22;24606;51.992;4.198;2023-07-13T06:37:14;24.00;66.60
38854;DHT22;24606;51.992;4.198;2023-07-13T06:42:16;25.10;64.80
38854;DHT22;24606;51.992;4.198;2023-07-13T06:47:19;24.30;67.70
38854;DHT22;24606;51.992;4.198;2023-07-13T06:52:21;24.50;65.40
38854;DHT22;24606;51.992;4.198;2023-07-13T06:57:23;24.20;67.30
38854;DHT22;24606;51.992;4.198;2023-07-13T07:02:26;24.70;65.00
38854;DHT22;24606;51.992;4.198;2023-07-13T07:07:28;23.10;75.20
38854;DHT22;24606;51.992;4.198;2023-07-13T07:12:30;25.80;62.00
38854;DHT22;24606;51.992;4.198;2023-07-13T07:17:34;25.60;62.00
38854;DHT22;24606;51.992;4.198;2023-07-13T07:22:36;26.10;61.50
38854;DHT22;24606;51.992;4.198;2023-07-13T07:27:38;24.90;65.70
38854;DHT22;24606;51.992;4.198;2023-07-13T07:32:41;25.20;63.50
38854;DHT22;24606;51.992;4.198;2023-07-13T07:37:43;25.10;64.40
38854;DHT22;24606;51.992;4.198;2023-07-13T07:42:45;22.90;72.00
38854;DHT22;24606;51.992;4.198;2023-07-13T07:47:48;23.30;74.50
38854;DHT22;24606;51.992;4.198;2023-07-13T07:52:50;24.30;68.90
38854;DHT22;24606;51.992;4.198;2023-07-13T07:57:52;23.70;69.90
38854;DHT22;24606;51.992;4.198;2023-07-13T08:02:56;24.10;70.10
38854;DHT22;24606;51.992;4.198;2023-07-13T08:07:58;23.10;72.80
38854;DHT22;24606;51.992;4.198;2023-07-13T08:12:59;23.90;71.50
38854;DHT22;24606;51.992;4.198;2023-07-13T08:18:02;23.00;76.50
38854;DHT22;24606;51.992;4.198;2023-07-13T08:23:05;23.60;72.70
38854;DHT22;24606;51.992;4.198;2023-07-13T08:28:07;23.00;76.00
38854;DHT22;24606;51.992;4.198;2023-07-13T08:33:10;23.60;72.20
38854;DHT22;24606;51.992;4.198;2023-07-13T08:38:12;23.70;72.40
38854;DHT22;24606;51.992;4.198;2023-07-13T08:43:16;24.10;68.80
38854;DHT22;24606;51.992;4.198;2023-07-13T08:48:25;23.10;73.40
38854;DHT22;24606;51.992;4.198;2023-07-13T08:53:34;23.90;72.10
38854;DHT22;24606;51.992;4.198;2023-07-13T08:58:39;23.30;76.10
38854;DHT22;24606;51.992;4.198;2023-07-13T09:03:51;24.30;69.60
38854;DHT22;24606;51.992;4.198;2023-07-13T09:09:01;22.80;80.60
38854;DHT22;24606;51.992;4.198;2023-07-13T09:14:10;23.20;75.60
38854;DHT22;24606;51.992;4.198;2023-07-13T09:19:21;23.10;72.30
38854;DHT22;24606;51.992;4.198;2023-07-13T09:24:36;23.00;76.90
38854;DHT22;24606;51.992;4.198;2023-07-13T09:29:42;23.40;74.80
38854;DHT22;24606;51.992;4.198;2023-07-13T09:34:52;23.60;72.20
38854;DHT22;24606;51.992;4.198;2023-07-13T09:39:56;22.80;76.80
38854;DHT22;24606;51.992;4.198;2023-07-13T09:45:00;23.40;74.30
38854;DHT22;24606;51.992;4.198;2023-07-13T09:50:08;23.50;71.70
38854;DHT22;24606;51.992;4.198;2023-07-13T09:55:27;23.50;73.50
38854;DHT22;24606;51.992;4.198;2023-07-13T10:00:30;23.50;71.50
38854;DHT22;24606;51.992;4.198;2023-07-13T10:05:42;23.80;72.50
38854;DHT22;24606;51.992;4.198;2023-07-13T10:10:44;23.00;74.60
38854;DHT22;24606;51.992;4.198;2023-07-13T10:15:46;24.30;69.00
38854;DHT22;24606;51.992;4.198;2023-07-13T10:20:54;24.00;71.90
38854;DHT22;24606;51.992;4.198;2023-07-13T10:26:01;24.40;68.40
38854;DHT22;24606;51.992;4.198;2023-07-13T10:31:07;23.80;73.10
38854;DHT22;24606;51.992;4.198;2023-07-13T10:36:17;23.00;76.80
38854;DHT22;24606;51.992;4.198;2023-07-13T10:41:24;23.20;76.00
38854;DHT22;24606;51.992;4.198;2023-07-13T10:46:28;22.90;78.10
38854;DHT22;24606;51.992;4.198;2023-07-13T10:51:32;23.30;72.10
38854;DHT22;24606;51.992;4.198;2023-07-13T10:56:34;23.50;73.70
38854;DHT22;24606;51.992;4.198;2023-07-13T11:01:40;23.60;72.80
38854;DHT22;24606;51.992;4.198;2023-07-13T11:06:52;22.50;78.20
38854;DHT22;24606;51.992;4.198;2023-07-13T11:11:56;23.60;69.90
38854;DHT22;24606;51.992;4.198;2023-07-13T11:17:47;22.80;73.10
38854;DHT22;24606;51.992;4.198;2023-07-13T11:22:52;22.90;77.50
38854;DHT22;24606;51.992;4.198;2023-07-13T11:28:11;24.10;69.20
38854;DHT22;24606;51.992;4.198;2023-07-13T11:33:18;23.70;69.40
38854;DHT22;24606;51.992;4.198;2023-07-13T11:38:24;23.60;71.80
38854;DHT22;24606;51.992;4.198;2023-07-13T11:43:29;23.00;68.70
38854;DHT22;24606;51.992;4.198;2023-07-13T11:48:34;23.60;67.90
38854;DHT22;24606;51.992;4.198;2023-07-13T11:53:48;24.00;65.90
38854;DHT22;24606;51.992;4.198;2023-07-13T11:58:51;23.90;67.00
38854;DHT22;24606;51.992;4.198;2023-07-13T12:03:54;25.00;63.30
38854;DHT22;24606;51.992;4.198;2023-07-13T12:08:58;25.10;63.80
38854;DHT22;24606;51.992;4.198;2023-07-13T12:14:01;24.40;65.40
38854;DHT22;24606;51.992;4.198;2023-07-13T12:19:03;24.30;66.50
38854;DHT22;24606;51.992;4.198;2023-07-13T12:24:14;24.60;64.90
38854;DHT22;24606;51.992;4.198;2023-07-13T12:29:17;24.10;65.80
38854;DHT22;24606;51.992;4.198;2023-07-13T12:34:21;25.20;64.10
38854;DHT22;24606;51.992;4.198;2023-07-13T12:39:29;25.90;61.40
38854;DHT22;24606;51.992;4.198;2023-07-13T12:44:33;24.50;68.00
38854;DHT22;24606;51.992;4.198;2023-07-13T12:49:41;23.90;65.30
38854;DHT22;24606;51.992;4.198;2023-07-13T12:54:54;23.60;66.70
38854;DHT22;24606;51.992;4.198;2023-07-13T12:59:58;24.90;63.20
38854;DHT22;24606;51.992;4.198;2023-07-13T13:05:01;24.60;61.50
38854;DHT22;24606;51.992;4.198;2023-07-13T13:10:12;24.60;65.80
38854;DHT22;24606;51.992;4.198;2023-07-13T13:15:15;25.00;63.00
38854;DHT22;24606;51.992;4.198;2023-07-13T13:20:20;24.50;66.20
38854;DHT22;24606;51.992;4.198;2023-07-13T13:25:24;25.40;59.30
38854;DHT22;24606;51.992;4.198;2023-07-13T13:30:26;24.90;65.00
38854;DHT22;24606;51.992;4.198;2023-07-13T13:35:28;26.20;60.50
38854;DHT22;24606;51.992;4.198;2023-07-13T13:40:32;26.40;59.10
38854;DHT22;24606;51.992;4.198;2023-07-13T13:45:34;26.50;59.40
38854;DHT22;24606;51.992;4.198;2023-07-13T13:50:36;25.90;62.10
38854;DHT22;24606;51.992;4.198;2023-07-13T13:55:40;26.40;59.50
38854;DHT22;24606;51.992;4.198;2023-07-13T14:00:43;26.70;56.20
38854;DHT22;24606;51.992;4.198;2023-07-13T14:05:46;27.10;56.50
38854;DHT22;24606;51.992;4.198;2023-07-13T14:10:51;26.70;59.20
38854;DHT22;24606;51.992;4.198;2023-07-13T14:15:54;26.40;59.20
38854;DHT22;24606;51.992;4.198;2023-07-13T14:20:56;27.10;59.50
38854;DHT22;24606;51.992;4.198;2023-07-13T14:26:00;26.30;60.30
38854;DHT22;24606;51.992;4.198;2023-07-13T14:31:02;27.00;59.40
38854;DHT22;24606;51.992;4.198;2023-07-13T14:36:16;27.80;57.80
38854;DHT22;24606;51.992;4.198;2023-07-13T14:41:24;27.20;56.70
38854;DHT22;24606;51.992;4.198;2023-07-13T14:46:29;28.00;57.90
38854;DHT22;24606;51.992;4.198;2023-07-13T14:51:31;27.30;58.50
38854;DHT22;24606;51.992;4.198;2023-07-13T14:56:36;28.20;56.40
38854;DHT22;24606;51.992;4.198;2023-07-13T15:01:39;27.90;56.20
38854;DHT22;24606;51.992;4.198;2023-07-13T15:06:55;28.30;57.40
38854;DHT22;24606;51.992;4.198;2023-07-13T15:11:59;28.10;57.50
38854;DHT22;24606;51.992;4.198;2023-07-13T15:17:01;27.50;56.50
38854;DHT22;24606;51.992;4.198;2023-07-13T15:22:03;27.80;59.20
38854;DHT22;24606;51.992;4.198;2023-07-13T15:27:10;28.60;56.70
38854;DHT22;24606;51.992;4.198;2023-07-13T15:32:13;27.80;57.10
38854;DHT22;24606;51.992;4.198;2023-07-13T15:37:16;27.60;55.80
38854;DHT22;24606;51.992;4.198;2023-07-13T15:42:20;27.50;59.40
38854;DHT22;24606;51.992;4.198;2023-07-13T15:47:22;28.50;55.20
38854;DHT22;24606;51.992;4.198;2023-07-13T15:52:24;29.00;55.10
38854;DHT22;24606;51.992;4.198;2023-07-13T15:57:28;28.90;54.40
38854;DHT22;24606;51.992;4.198;2023-07-13T16:02:30;27.40;54.80
38854;DHT22;24606;51.992;4.198;2023-07-13T16:07:32;28.10;58.70
38854;DHT22;24606;51.992;4.198;2023-07-13T16:12:36;29.10;56.90
38854;DHT22;24606;51.992;4.198;2023-07-13T16:17:38;28.80;55.10
38854;DHT22;24606;51.992;4.198;2023-07-13T16:22:45;29.00;53.60
38854;DHT22;24606;51.992;4.198;2023-07-13T16:27:49;29.00;56.40
38854;DHT22;24606;51.992;4.198;2023-07-13T16:32:51;28.80;56.40
38854;DHT22;24606;51.992;4.198;2023-07-13T16:37:53;29.20;55.70
38854;DHT22;24606;51.992;4.198;2023-07-13T16:42:59;28.00;55.30
38854;DHT22;24606;51.992;4.198;2023-07-13T16:48:10;29.80;54.30
38854;DHT22;24606;51.992;4.198;2023-07-13T16:53:19;30.10;53.40
38854;DHT22;24606;51.992;4.198;2023-07-13T16:58:24;30.00;53.40
38854;DHT22;24606;51.992;4.198;2023-07-13T17:03:26;29.80;54.10
38854;DHT22;24606;51.992;4.198;2023-07-13T17:08:30;28.80;55.20
38854;DHT22;24606;51.992;4.198;2023-07-13T17:13:35;29.30;53.10
38854;DHT22;24606;51.992;4.198;2023-07-13T17:18:37;29.00;53.70
38854;DHT22;24606;51.992;4.198;2023-07-13T17:23:39;27.80;54.00
38854;DHT22;24606;51.992;4.198;2023-07-13T17:28:42;29.00;55.60
38854;DHT22;24606;51.992;4.198;2023-07-13T17:33:45;30.10;53.80
38854;DHT22;24606;51.992;4.198;2023-07-13T17:38:49;30.30;52.80
38854;DHT22;24606;51.992;4.198;2023-07-13T17:43:58;30.20;52.40
38854;DHT22;24606;51.992;4.198;2023-07-13T17:49:00;29.60;53.50
38854;DHT22;24606;51.992;4.198;2023-07-13T17:54:02;29.50;53.50
38854;DHT22;24606;51.992;4.198;2023-07-13T17:59:05;29.20;52.40
38854;DHT22;24606;51.992;4.198;2023-07-13T18:04:09;28.90;55.10
38854;DHT22;24606;51.992;4.198;2023-07-13T18:09:14;29.20;57.10
38854;DHT22;24606;51.992;4.198;2023-07-13T18:14:18;29.20;55.20
38854;DHT22;24606;51.992;4.198;2023-07-13T18:19:32;28.40;55.90
38854;DHT22;24606;51.992;4.198;2023-07-13T18:24:34;28.20;54.90
38854;DHT22;24606;51.992;4.198;2023-07-13T18:29:37;26.20;57.20
38854;DHT22;24606;51.992;4.198;2023-07-13T18:34:40;28.90;54.10
38854;DHT22;24606;51.992;4.198;2023-07-13T18:39:43;27.50;54.50
38854;DHT22;24606;51.992;4.198;2023-07-13T18:44:47;28.20;55.70
38854;DHT22;24606;51.992;4.198;2023-07-13T18:49:49;29.60;53.50
38854;DHT22;24606;51.992;4.198;2023-07-13T18:54:52;29.60;53.00
38854;DHT22;24606;51.992;4.198;2023-07-13T18:59:56;29.60;52.50
38854;DHT22;24606;51.992;4.198;2023-07-13T19:04:58;28.00;53.60
38854;DHT22;24606;51.992;4.198;2023-07-13T19:10:00;29.90;52.20
38854;DHT22;24606;51.992;4.198;2023-07-13T19:15:17;30.00;51.80
38854;DHT22;24606;51.992;4.198;2023-07-13T19:20:20;29.90;50.80
38854;DHT22;24606;51.992;4.198;2023-07-13T19:25:24;29.30;52.80
38854;DHT22;24606;51.992;4.198;2023-07-13T19:30:28;29.20;52.80
38854;DHT22;24606;51.992;4.198;2023-07-13T19:35:31;27.80;54.70
38854;DHT22;24606;51.992;4.198;2023-07-13T19:40:34;27.60;52.20
38854;DHT22;24606;51.992;4.198;2023-07-13T19:45:37;27.20;53.70
38854;DHT22;24606;51.992;4.198;2023-07-13T19:50:39;28.00;54.70
38854;DHT22;24606;51.992;4.198;2023-07-13T19:55:43;28.90;52.80
38854;DHT22;24606;51.992;4.198;2023-07-13T20:00:46;29.10;51.90
38854;DHT22;24606;51.992;4.198;2023-07-13T20:05:48;29.40;51.50
38854;DHT22;24606;51.992;4.198;2023-07-13T20:10:50;28.20;52.70
38854;DHT22;24606;51.992;4.198;2023-07-13T20:15:54;27.80;51.80
38854;DHT22;24606;51.992;4.198;2023-07-13T20:20:58;28.50;50.20
38854;DHT22;24606;51.992;4.198;2023-07-13T20:26:00;28.60;52.80
38854;DHT22;24606;51.992;4.198;2023-07-13T20:31:05;29.20;51.90
38854;DHT22;24606;51.992;4.198;2023-07-13T20:36:12;28.30;52.40
38854;DHT22;24606;51.992;4.198;2023-07-13T20:41:14;27.10;54.80
38854;DHT22;24606;51.992;4.198;2023-07-13T20:46:19;28.30;53.00
38854;DHT22;24606;51.992;4.198;2023-07-13T20:51:22;28.40;52.50
38854;DHT22;24606;51.992;4.198;2023-07-13T20:56:26;28.80;52.10
38854;DHT22;24606;51.992;4.198;2023-07-13T21:01:32;28.20;53.20
38854;DHT22;24606;51.992;4.198;2023-07-13T21:06:35;28.40;52.40
38854;DHT22;24606;51.992;4.198;2023-07-13T21:11:37;28.20;53.10
38854;DHT22;24606;51.992;4.198;2023-07-13T21:16:41;28.30;53.00
38854;DHT22;24606;51.992;4.198;2023-07-13T21:21:43;26.80;55.70
38854;DHT22;24606;51.992;4.198;2023-07-13T21:26:45;25.20;57.70
38854;DHT22;24606;51.992;4.198;2023-07-13T21:31:49;26.40;56.90
38854;DHT22;24606;51.992;4.198;2023-07-13T21:36:51;25.80;58.70
38854;DHT22;24606;51.992;4.198;2023-07-13T21:41:59;26.90;55.60
38854;DHT22;24606;51.992;4.198;2023-07-13T21:47:03;26.90;55.10
38854;DHT22;24606;51.992;4.198;2023-07-13T21:52:14;26.10;57.90
38854;DHT22;24606;51.992;4.198;2023-07-13T21:57:17;26.10;57.50
38854;DHT22;24606;51.992;4.198;2023-07-13T22:02:20;26.50;56.80
38854;DHT22;24606;51.992;4.198;2023-07-13T22:07:22;26.60;56.60
38854;DHT22;24606;51.992;4.198;2023-07-13T22:12:24;26.30;56.80
38854;DHT22;24606;51.992;4.198;2023-07-13T22:17:27;27.50;54.80
38854;DHT22;24606;51.992;4.198;2023-07-13T22:22:29;27.40;54.60
38854;DHT22;24606;51.992;4.198;2023-07-13T22:27:31;27.20;54.80
38854;DHT22;24606;51.992;4.198;2023-07-13T22:32:35;27.10;55.60
38854;DHT22;24606;51.992;4.198;2023-07-13T22:37:37;27.60;54.50
38854;DHT22;24606;51.992;4.198;2023-07-13T22:42:39;28.10;53.50
38854;DHT22;24606;51.992;4.198;2023-07-13T22:47:42;27.80;54.10
38854;DHT22;24606;51.992;4.198;2023-07-13T22:52:44;26.70;56.50
38854;DHT22;24606;51.992;4.198;2023-07-13T22:57:48;27.40;53.00
38854;DHT22;24606;51.992;4.198;2023-07-13T23:02:52;26.70;55.60
38854;DHT22;24606;51.992;4.198;2023-07-13T23:07:53;25.50;59.20
38854;DHT22;24606;51.992;4.198;2023-07-13T23:12:55;26.10;57.50
38854;DHT22;24606;51.992;4.198;2023-07-13T23:18:04;26.40;56.70
38854;DHT22;24606;51.992;4.198;2023-07-13T23:23:10;26.40;56.40
38854;DHT22;24606;51.992;4.198;2023-07-13T23:28:12;26.70;55.80
38854;DHT22;24606;51.992;4.198;2023-07-13T23:33:20;26.70;56.10
38854;DHT22;24606;51.992;4.198;2023-07-13T23:38:23;27.50;54.90
38854;DHT22;24606;51.992;4.198;2023-07-13T23:43:25;27.80;53.80
38854;DHT22;24606;51.992;4.198;2023-07-13T23:48:28;27.90;54.20
38854;DHT22;24606;51.992;4.198;2023-07-13T23:53:30;27.90;53.60
38854;DHT22;24606;51.992;4.198;2023-07-13T23:58:32;28.00;53.60
